Time;durP1;ratioP1;P1;durP2;ratioP2;P2;SDS_P1;SDS_P2;PMS_P1;PMS_P2;Temp;Humidity;BMP_temperature;BMP_pressure;BME280_temperature;BME280_humidity;BME280_pressure;Samples;Min_cycle;Max_cycle;Signal;HPM_P1;HPM_P2
2022/07/06 00:00:05;;;;;;;;;;;22.20;75.10;22.20;100093.00;;;;342975;28;91133;-88
2022/07/06 00:00:17;;;;;;;;;;;22.20;75.20;22.20;100097.00;;;;343219;28;94663;-88
2022/07/06 00:00:29;;;;;;;;;;;22.20;75.10;22.30;100091.00;;;;344217;28;92991;-88
2022/07/06 00:00:40;;;;;;;;;;;22.20;75.10;22.30;100093.00;;;;344551;28;95689;-88
2022/07/06 00:00:52;;;;;;;;;;;22.20;75.00;22.30;100097.00;;;;342972;28;91242;-89
2022/07/06 00:01:04;;;;;;;;;;;22.20;75.00;22.30;100092.00;;;;347277;28;95051;-88
2022/07/06 00:01:16;;;;;;;;;;;22.20;75.10;22.30;100096.00;;;;342889;28;92381;-88
2022/07/06 00:01:28;;;;;;;;;;;22.30;75.10;22.30;100102.00;;;;341909;28;95670;-89
2022/07/06 00:01:39;;;;;;;;;;;22.20;75.10;22.30;100101.00;;;;342774;28;92010;-88
2022/07/06 00:01:51;;;;;;;;;;;22.20;75.00;22.20;100095.00;;;;342273;28;96169;-89
2022/07/06 00:02:03;;;;;;;;;;;22.20;75.10;22.20;100093.00;;;;345815;28;91621;-89
2022/07/06 00:02:15;;;;;;;;;;;22.20;75.30;22.10;100096.00;;;;343160;28;95884;-89
2022/07/06 00:02:27;;;;;;;;;;;22.20;75.10;22.10;100096.00;;;;341655;28;91221;-89
2022/07/06 00:02:39;;;;;;;;;;;22.20;75.10;22.20;100094.00;;;;343204;28;94839;-89
2022/07/06 00:02:51;;;;;;;;;;;22.20;75.10;22.20;100097.00;;;;342757;28;91332;-88
2022/07/06 00:03:03;;;;;;;;;;;22.20;75.20;22.20;100094.00;;;;344491;28;94997;-88
2022/07/06 00:03:15;;;;;;;;;;;22.20;75.20;22.20;100095.00;;;;342931;28;91184;-88
2022/07/06 00:03:27;;;;;;;;;;;22.20;75.30;22.20;100100.00;;;;345953;28;95815;-88
2022/07/06 00:03:39;;;;;;;;;;;22.20;75.20;22.20;100096.00;;;;344186;28;91280;-89
2022/07/06 00:03:51;;;;;;;;;;;22.20;75.30;22.20;100104.00;;;;341817;28;95652;-88
2022/07/06 00:04:06;;;;;;;;;;;22.20;75.30;22.20;100099.00;;;;342972;28;92120;-88
2022/07/06 00:04:18;;;;;;;;;;;22.20;75.30;22.30;100099.00;;;;343234;28;95642;-88
2022/07/06 00:04:30;;;;;;;;;;;22.20;75.20;22.20;100094.00;;;;341575;28;92178;-88
2022/07/06 00:04:42;;;;;;;;;;;22.20;75.20;22.10;100096.00;;;;341742;28;95073;-88
2022/07/06 00:04:54;;;;;;;;;;;22.20;75.20;22.20;100100.00;;;;345659;28;90490;-89
2022/07/06 00:05:06;;;;;;;;;;;22.20;75.10;22.10;100099.00;;;;345942;28;93724;-88
2022/07/06 00:05:18;;;;;;;;;;;22.20;75.10;22.10;100103.00;;;;342524;28;92151;-89
2022/07/06 00:05:30;;;;;;;;;;;22.20;75.00;22.10;100097.00;;;;343112;28;95463;-89
2022/07/06 00:05:42;;;;;;;;;;;22.20;75.30;22.00;100097.00;;;;344457;28;91866;-88
2022/07/06 00:05:53;;;;;;;;;;;22.10;75.10;22.00;100107.00;;;;344554;28;95581;-89
2022/07/06 00:06:05;;;;;;;;;;;22.10;75.00;22.10;100097.00;;;;342883;28;92137;-88
2022/07/06 00:06:17;;;;;;;;;;;22.10;75.10;22.00;100096.00;;;;343193;28;95785;-89
2022/07/06 00:06:29;;;;;;;;;;;22.10;75.30;22.00;100101.00;;;;344229;28;91185;-88
2022/07/06 00:06:41;;;;;;;;;;;22.10;75.30;22.10;100094.00;;;;344575;28;94132;-89
2022/07/06 00:06:53;;;;;;;;;;;22.10;75.40;22.00;100093.00;;;;342974;28;91360;-88
2022/07/06 00:07:04;;;;;;;;;;;22.10;75.30;22.00;100097.00;;;;344514;28;95019;-88
2022/07/06 00:07:16;;;;;;;;;;;22.10;75.30;22.00;100091.00;;;;344404;28;91943;-88
2022/07/06 00:07:28;;;;;;;;;;;22.10;75.20;22.00;100094.00;;;;344237;28;95570;-88
2022/07/06 00:07:40;;;;;;;;;;;22.10;75.30;22.00;100090.00;;;;345596;28;91253;-88
2022/07/06 00:07:52;;;;;;;;;;;22.10;75.30;22.10;100095.00;;;;345479;28;94956;-88
2022/07/06 00:08:04;;;;;;;;;;;22.10;75.30;22.00;100107.00;;;;343013;28;92131;-88
2022/07/06 00:08:16;;;;;;;;;;;22.10;75.30;22.00;100101.00;;;;344412;28;95824;-88
2022/07/06 00:08:28;;;;;;;;;;;22.10;75.30;22.00;100098.00;;;;345532;28;92262;-88
2022/07/06 00:08:40;;;;;;;;;;;22.10;75.40;22.00;100097.00;;;;343153;28;96222;-87
2022/07/06 00:08:52;;;;;;;;;;;22.10;75.40;22.00;100097.00;;;;344356;28;91323;-88
2022/07/06 00:09:04;;;;;;;;;;;22.10;75.30;22.00;100095.00;;;;344732;28;95715;-88
2022/07/06 00:09:17;;;;;;;;;;;22.00;75.20;22.00;100091.00;;;;345855;28;91924;-88
2022/07/06 00:09:29;;;;;;;;;;;22.10;75.30;22.00;100098.00;;;;346084;28;95389;-88
2022/07/06 00:09:41;;;;;;;;;;;22.10;75.30;22.00;100092.00;;;;342851;28;92089;-89
2022/07/06 00:09:53;;;;;;;;;;;22.00;75.20;22.00;100102.00;;;;344554;28;96036;-88
2022/07/06 00:10:05;;;;;;;;;;;22.10;75.30;22.00;100092.00;;;;344455;28;91165;-88
2022/07/06 00:10:17;;;;;;;;;;;22.00;75.20;22.00;100087.00;;;;341775;28;94447;-88
2022/07/06 00:10:29;;;;;;;;;;;22.00;75.50;21.90;100094.00;;;;344291;28;91208;-88
2022/07/06 00:10:41;;;;;;;;;;;22.00;75.40;22.00;100093.00;;;;344313;28;95768;-88
2022/07/06 00:10:53;;;;;;;;;;;22.00;75.40;22.00;100094.00;;;;343391;28;91358;-88
2022/07/06 00:11:05;;;;;;;;;;;22.00;75.40;22.00;100096.00;;;;344512;28;95333;-88
2022/07/06 00:11:16;;;;;;;;;;;22.00;75.20;22.00;100095.00;;;;345978;28;91244;-88
2022/07/06 00:11:29;;;;;;;;;;;22.00;75.30;21.90;100085.00;;;;344481;28;94969;-88
2022/07/06 00:11:41;;;;;;;;;;;22.00;75.30;22.00;100094.00;;;;344223;28;92038;-88
2022/07/06 00:11:52;;;;;;;;;;;22.00;75.30;22.00;100080.00;;;;344287;28;94617;-89
2022/07/06 00:12:04;;;;;;;;;;;22.00;75.30;22.00;100092.00;;;;345547;28;92011;-89
2022/07/06 00:12:16;;;;;;;;;;;21.90;75.30;22.00;100086.00;;;;342957;28;95924;-88
2022/07/06 00:12:30;;;;;;;;;;;22.00;75.60;22.00;100090.00;;;;344243;28;91186;-89
2022/07/06 00:12:42;;;;;;;;;;;22.00;75.60;22.00;100088.00;;;;343203;28;95950;-88
2022/07/06 00:12:54;;;;;;;;;;;22.00;75.50;22.00;100085.00;;;;342606;28;91457;-88
2022/07/06 00:13:06;;;;;;;;;;;22.00;75.40;22.00;100087.00;;;;344483;28;93568;-88
2022/07/06 00:13:18;;;;;;;;;;;22.00;75.40;22.00;100088.00;;;;344219;28;92027;-88
2022/07/06 00:13:29;;;;;;;;;;;22.00;75.60;22.00;100086.00;;;;343190;28;95828;-88
2022/07/06 00:13:41;;;;;;;;;;;22.00;75.50;22.00;100084.00;;;;341557;28;92138;-88
2022/07/06 00:13:53;;;;;;;;;;;22.00;75.40;21.90;100091.00;;;;343920;28;95646;-88
2022/07/06 00:14:06;;;;;;;;;;;22.00;75.50;21.90;100090.00;;;;342882;28;91988;-89
2022/07/06 00:14:18;;;;;;;;;;;22.00;75.50;22.00;100102.00;;;;346843;28;95597;-88
2022/07/06 00:14:29;;;;;;;;;;;22.00;75.60;22.00;100090.00;;;;343904;28;91275;-88
2022/07/06 00:14:41;;;;;;;;;;;22.00;75.70;22.00;100093.00;;;;342986;28;94990;-88
2022/07/06 00:14:53;;;;;;;;;;;21.90;75.60;22.00;100090.00;;;;343049;28;91380;-88
2022/07/06 00:15:05;;;;;;;;;;;22.00;75.70;21.90;100086.00;;;;345666;28;94075;-88
2022/07/06 00:15:17;;;;;;;;;;;22.00;75.60;21.90;100085.00;;;;344141;28;92067;-88
2022/07/06 00:15:29;;;;;;;;;;;22.00;75.50;21.80;100084.00;;;;344745;28;95456;-88
2022/07/06 00:15:41;;;;;;;;;;;21.90;75.80;21.90;100089.00;;;;342826;28;92088;-89
2022/07/06 00:15:53;;;;;;;;;;;21.90;75.70;21.90;100090.00;;;;343271;28;94698;-89
2022/07/06 00:16:04;;;;;;;;;;;21.90;75.60;21.90;100081.00;;;;343028;28;91973;-88
2022/07/06 00:16:17;;;;;;;;;;;21.90;75.60;21.90;100082.00;;;;343183;28;96009;-88
2022/07/06 00:16:29;;;;;;;;;;;21.90;75.60;21.90;100084.00;;;;344304;28;92010;-89
2022/07/06 00:16:40;;;;;;;;;;;21.90;75.70;21.90;100077.00;;;;346891;28;94786;-89
2022/07/06 00:16:52;;;;;;;;;;;21.90;75.50;21.80;100085.00;;;;345073;28;91312;-88
2022/07/06 00:17:04;;;;;;;;;;;21.90;75.50;21.90;100089.00;;;;343240;28;94824;-89
2022/07/06 00:17:16;;;;;;;;;;;21.90;75.40;21.90;100085.00;;;;347578;27;92034;-88
2022/07/06 00:17:28;;;;;;;;;;;21.90;75.40;21.90;100093.00;;;;347369;28;93949;-89
2022/07/06 00:17:40;;;;;;;;;;;21.90;75.60;21.90;100091.00;;;;342797;28;91987;-89
2022/07/06 00:17:52;;;;;;;;;;;21.90;75.60;21.90;100080.00;;;;346712;28;95830;-89
2022/07/06 00:18:04;;;;;;;;;;;21.90;75.80;21.90;100084.00;;;;342889;28;91986;-88
2022/07/06 00:18:16;;;;;;;;;;;21.90;75.70;21.90;100085.00;;;;343155;28;95911;-88
2022/07/06 00:18:28;;;;;;;;;;;21.90;75.70;21.80;100079.00;;;;345561;28;92109;-88
2022/07/06 00:18:40;;;;;;;;;;;21.90;75.70;21.80;100082.00;;;;344381;28;96100;-89
2022/07/06 00:18:52;;;;;;;;;;;21.90;75.70;21.80;100082.00;;;;344306;28;91252;-89
2022/07/06 00:19:04;;;;;;;;;;;21.90;75.60;21.80;100084.00;;;;343121;28;93959;-89
2022/07/06 00:19:15;;;;;;;;;;;21.80;75.50;21.70;100084.00;;;;342875;28;92014;-88
2022/07/06 00:19:27;;;;;;;;;;;21.80;75.50;21.80;100093.00;;;;342918;28;95956;-89
2022/07/06 00:19:39;;;;;;;;;;;21.80;75.50;21.80;100090.00;;;;342900;28;92089;-88
2022/07/06 00:19:51;;;;;;;;;;;21.80;75.50;21.80;100089.00;;;;343355;28;96055;-88
2022/07/06 00:20:03;;;;;;;;;;;21.80;75.60;21.80;100089.00;;;;343720;28;92121;-88
2022/07/06 00:20:15;;;;;;;;;;;21.80;75.60;21.90;100086.00;;;;343740;28;95667;-89
2022/07/06 00:20:27;;;;;;;;;;;21.80;75.60;21.90;100091.00;;;;344247;28;92005;-88
2022/07/06 00:20:38;;;;;;;;;;;21.80;75.90;21.90;100086.00;;;;345808;28;95124;-88
2022/07/06 00:20:52;;;;;;;;;;;21.80;75.80;21.80;100089.00;;;;344185;28;90483;-88
2022/07/06 00:21:03;;;;;;;;;;;21.80;75.90;21.80;100075.00;;;;345763;28;94764;-88
2022/07/06 00:21:15;;;;;;;;;;;21.80;76.00;21.80;100079.00;;;;345624;28;91254;-88
2022/07/06 00:21:27;;;;;;;;;;;21.80;76.00;21.80;100092.00;;;;343184;28;94332;-89
2022/07/06 00:21:39;;;;;;;;;;;21.80;76.00;21.80;100087.00;;;;343827;28;91257;-88
2022/07/06 00:21:51;;;;;;;;;;;21.80;76.00;21.80;100083.00;;;;342887;28;94815;-88
2022/07/06 00:22:03;;;;;;;;;;;21.80;76.00;21.80;100086.00;;;;344295;28;92121;-89
2022/07/06 00:22:14;;;;;;;;;;;21.80;76.00;21.80;100083.00;;;;345870;28;94278;-88
2022/07/06 00:22:26;;;;;;;;;;;21.80;76.00;21.90;100084.00;;;;344143;28;91163;-89
2022/07/06 00:22:38;;;;;;;;;;;21.80;76.00;21.80;100086.00;;;;345809;28;96025;-89
2022/07/06 00:22:50;;;;;;;;;;;21.80;76.10;21.80;100086.00;;;;343678;28;91481;-89
2022/07/06 00:23:02;;;;;;;;;;;21.80;76.10;21.80;100085.00;;;;343062;28;93776;-88
2022/07/06 00:23:13;;;;;;;;;;;21.80;76.10;21.80;100082.00;;;;343797;28;92131;-88
2022/07/06 00:23:25;;;;;;;;;;;21.80;76.00;21.80;100088.00;;;;345833;28;95743;-88
2022/07/06 00:23:37;;;;;;;;;;;21.80;75.90;21.80;100088.00;;;;344230;28;91249;-88
2022/07/06 00:23:49;;;;;;;;;;;21.80;76.00;21.80;100089.00;;;;343046;28;95843;-88
2022/07/06 00:24:01;;;;;;;;;;;21.80;76.00;21.90;100080.00;;;;345601;28;92011;-88
2022/07/06 00:24:13;;;;;;;;;;;21.80;76.00;21.80;100081.00;;;;343061;28;95690;-88
2022/07/06 00:24:25;;;;;;;;;;;21.80;76.20;21.80;100082.00;;;;345308;28;92178;-88
2022/07/06 00:24:37;;;;;;;;;;;21.80;76.20;21.80;100082.00;;;;344433;28;96445;-88
2022/07/06 00:24:49;;;;;;;;;;;21.80;76.30;21.80;100083.00;;;;344194;28;91327;-88
2022/07/06 00:25:00;;;;;;;;;;;21.80;76.20;21.80;100084.00;;;;343139;28;94074;-89
2022/07/06 00:25:12;;;;;;;;;;;21.80;76.20;21.80;100079.00;;;;343958;28;92002;-88
2022/07/06 00:25:24;;;;;;;;;;;21.80;76.10;21.80;100086.00;;;;342982;28;95746;-88
2022/07/06 00:25:36;;;;;;;;;;;21.80;76.20;21.80;100081.00;;;;345623;28;92371;-88
2022/07/06 00:25:48;;;;;;;;;;;21.80;76.30;21.80;100078.00;;;;342546;28;95993;-88
2022/07/06 00:26:00;;;;;;;;;;;21.80;76.40;21.70;100092.00;;;;342762;28;91911;-88
2022/07/06 00:26:12;;;;;;;;;;;21.80;76.40;21.80;100087.00;;;;345809;28;93370;-88
2022/07/06 00:26:24;;;;;;;;;;;21.80;76.20;21.80;100084.00;;;;344232;28;92008;-88
2022/07/06 00:26:35;;;;;;;;;;;21.70;76.20;21.80;100087.00;;;;341664;28;95945;-88
2022/07/06 00:26:47;;;;;;;;;;;21.80;76.40;21.80;100086.00;;;;345644;28;91307;-88
2022/07/06 00:26:59;;;;;;;;;;;21.80;76.30;21.70;100097.00;;;;347134;28;93769;-89
2022/07/06 00:27:11;;;;;;;;;;;21.70;76.90;21.70;100088.00;;;;345520;28;92219;-88
2022/07/06 00:27:23;;;;;;;;;;;21.70;76.20;21.70;100084.00;;;;344502;28;95313;-88
2022/07/06 00:27:35;;;;;;;;;;;21.70;76.30;21.70;100092.00;;;;347017;28;91947;-88
2022/07/06 00:27:47;;;;;;;;;;;21.70;76.30;21.70;100097.00;;;;345631;28;96014;-88
2022/07/06 00:27:59;;;;;;;;;;;21.70;76.40;21.70;100089.00;;;;342854;28;91119;-88
2022/07/06 00:28:11;;;;;;;;;;;21.70;76.30;21.70;100085.00;;;;344578;28;95929;-88
2022/07/06 00:28:23;;;;;;;;;;;21.70;76.50;21.70;100089.00;;;;344310;28;91917;-88
2022/07/06 00:28:35;;;;;;;;;;;21.70;76.50;21.70;100091.00;;;;344517;28;95615;-88
2022/07/06 00:28:47;;;;;;;;;;;21.70;76.50;21.70;100087.00;;;;344079;28;91542;-89
2022/07/06 00:28:59;;;;;;;;;;;21.70;76.70;21.60;100085.00;;;;344351;28;95641;-89
2022/07/06 00:29:11;;;;;;;;;;;21.70;76.50;21.60;100084.00;;;;343796;28;92695;-88
2022/07/06 00:29:23;;;;;;;;;;;21.70;76.50;21.60;100092.00;;;;344231;28;95259;-88
2022/07/06 00:29:35;;;;;;;;;;;21.70;76.60;21.70;100090.00;;;;344292;28;91200;-88
2022/07/06 00:29:47;;;;;;;;;;;21.70;76.70;21.70;100090.00;;;;345056;28;95771;-89
2022/07/06 00:30:00;;;;;;;;;;;21.70;76.70;21.60;100093.00;;;;345374;28;92098;-88
2022/07/06 00:30:12;;;;;;;;;;;21.70;76.70;21.60;100084.00;;;;343038;28;96023;-88
2022/07/06 00:30:24;;;;;;;;;;;21.70;76.60;21.60;100091.00;;;;345350;28;92064;-88
2022/07/06 00:30:36;;;;;;;;;;;21.70;76.60;21.70;100089.00;;;;342883;28;96184;-88
2022/07/06 00:30:48;;;;;;;;;;;21.70;76.60;21.70;100088.00;;;;342866;28;90451;-88
2022/07/06 00:31:00;;;;;;;;;;;21.70;76.70;21.60;100081.00;;;;343095;28;94244;-88
2022/07/06 00:31:12;;;;;;;;;;;21.70;76.90;21.60;100077.00;;;;341250;28;91344;-88
2022/07/06 00:31:24;;;;;;;;;;;21.60;76.70;21.60;100083.00;;;;343113;28;94207;-89
2022/07/06 00:31:36;;;;;;;;;;;21.60;76.50;21.60;100088.00;;;;344303;28;91155;-88
2022/07/06 00:31:48;;;;;;;;;;;21.60;76.60;21.70;100081.00;;;;343544;28;96048;-89
2022/07/06 00:32:00;;;;;;;;;;;21.60;76.70;21.70;100092.00;;;;345452;28;92137;-88
2022/07/06 00:32:11;;;;;;;;;;;21.60;76.70;21.70;100090.00;;;;347017;28;94047;-89
2022/07/06 00:32:25;;;;;;;;;;;21.60;76.70;21.60;100083.00;;;;344110;28;91867;-87
2022/07/06 00:32:37;;;;;;;;;;;21.60;76.70;21.70;100086.00;;;;342980;28;96056;-88
2022/07/06 00:32:48;;;;;;;;;;;21.60;76.70;21.60;100084.00;;;;345626;28;91262;-89
2022/07/06 00:33:00;;;;;;;;;;;21.60;76.80;21.60;100079.00;;;;344316;28;95563;-88
2022/07/06 00:33:12;;;;;;;;;;;21.60;76.80;21.60;100070.00;;;;344079;28;92176;-89
2022/07/06 00:33:24;;;;;;;;;;;21.60;76.80;21.60;100080.00;;;;344504;28;92555;-88
2022/07/06 00:33:36;;;;;;;;;;;21.60;76.80;21.60;100087.00;;;;342956;28;91884;-88
2022/07/06 00:33:48;;;;;;;;;;;21.60;76.80;21.60;100079.00;;;;341700;28;95583;-88
2022/07/06 00:34:00;;;;;;;;;;;21.60;76.80;21.60;100079.00;;;;344280;28;91147;-88
2022/07/06 00:34:11;;;;;;;;;;;21.60;76.90;21.60;100074.00;;;;341665;28;95855;-88
2022/07/06 00:34:23;;;;;;;;;;;21.60;76.80;21.60;100078.00;;;;344152;28;92097;-88
2022/07/06 00:34:35;;;;;;;;;;;21.60;76.70;21.60;100074.00;;;;342839;28;96221;-88
2022/07/06 00:34:47;;;;;;;;;;;21.60;76.60;21.50;100080.00;;;;342361;28;91477;-89
2022/07/06 00:34:58;;;;;;;;;;;21.60;76.80;21.60;100080.00;;;;344395;28;95880;-89
2022/07/06 00:35:10;;;;;;;;;;;21.60;76.80;21.50;100086.00;;;;344071;28;91484;-89
2022/07/06 00:35:22;;;;;;;;;;;21.60;77.20;21.50;100077.00;;;;344494;28;93606;-88
2022/07/06 00:35:34;;;;;;;;;;;21.60;77.00;21.40;100077.00;;;;342752;28;92110;-88
2022/07/06 00:35:46;;;;;;;;;;;21.60;76.90;21.40;100073.00;;;;343630;28;92545;-88
2022/07/06 00:35:58;;;;;;;;;;;21.50;76.90;21.40;100078.00;;;;342668;28;92052;-88
2022/07/06 00:36:10;;;;;;;;;;;21.50;76.80;21.50;100078.00;;;;342938;28;94793;-88
2022/07/06 00:36:22;;;;;;;;;;;21.50;77.10;21.50;100070.00;;;;342840;28;92084;-88
2022/07/06 00:36:33;;;;;;;;;;;21.50;76.90;21.40;100079.00;;;;342927;28;95823;-89
2022/07/06 00:36:46;;;;;;;;;;;21.50;76.90;21.50;100081.00;;;;342944;28;91239;-88
2022/07/06 00:36:58;;;;;;;;;;;21.50;76.90;21.50;100074.00;;;;344109;28;91960;-88
2022/07/06 00:37:10;;;;;;;;;;;21.50;77.00;21.50;100081.00;;;;342955;28;91161;-88
2022/07/06 00:37:23;;;;;;;;;;;21.50;77.00;21.50;100069.00;;;;343075;28;92162;-89
2022/07/06 00:37:35;;;;;;;;;;;21.50;77.00;21.50;100069.00;;;;344368;28;91880;-88
2022/07/06 00:37:47;;;;;;;;;;;21.50;77.00;21.60;100083.00;;;;344206;28;93046;-88
2022/07/06 00:37:58;;;;;;;;;;;21.50;76.90;21.60;100076.00;;;;344693;28;91990;-88
2022/07/06 00:38:10;;;;;;;;;;;21.50;76.90;21.50;100077.00;;;;344410;28;93669;-89
2022/07/06 00:38:22;;;;;;;;;;;21.50;77.10;21.40;100074.00;;;;342851;28;91028;-88
2022/07/06 00:38:35;;;;;;;;;;;21.50;77.30;21.50;100077.00;;;;344266;28;95200;-88
2022/07/06 00:38:47;;;;;;;;;;;21.50;77.20;21.40;100082.00;;;;345250;28;91396;-88
2022/07/06 00:38:59;;;;;;;;;;;21.50;77.30;21.40;100080.00;;;;343193;28;93127;-88
2022/07/06 00:39:10;;;;;;;;;;;21.50;77.10;21.50;100077.00;;;;341268;28;92171;-88
2022/07/06 00:39:28;;;;;;;;;;;21.40;77.00;21.50;100081.00;;;;343140;28;92306;-88
2022/07/06 00:39:41;;;;;;;;;;;21.40;77.00;21.50;100073.00;;;;344301;28;91950;-88
2022/07/06 00:39:53;;;;;;;;;;;21.50;77.00;21.50;100068.00;;;;345834;28;94059;-88
2022/07/06 00:40:05;;;;;;;;;;;21.40;77.00;21.50;100073.00;;;;344249;28;91784;-89
2022/07/06 00:40:18;;;;;;;;;;;21.50;77.20;21.50;100076.00;;;;344262;28;96477;-88
2022/07/06 00:40:30;;;;;;;;;;;21.40;77.10;21.40;100077.00;;;;342826;28;92185;-88
2022/07/06 00:40:42;;;;;;;;;;;21.40;77.20;21.50;100068.00;;;;345567;28;96278;-88
2022/07/06 00:40:53;;;;;;;;;;;21.40;77.10;21.50;100077.00;;;;343686;28;91280;-88
2022/07/06 00:41:05;;;;;;;;;;;21.40;77.30;21.50;100078.00;;;;345934;28;92180;-88
2022/07/06 00:41:17;;;;;;;;;;;21.40;77.30;21.50;100070.00;;;;343565;28;92034;-88
2022/07/06 00:41:29;;;;;;;;;;;21.40;77.40;21.50;100077.00;;;;344271;28;93615;-89
2022/07/06 00:41:41;;;;;;;;;;;21.40;77.20;21.50;100078.00;;;;344185;28;91782;-88
2022/07/06 00:41:53;;;;;;;;;;;21.40;77.20;21.50;100081.00;;;;342863;28;96159;-89
2022/07/06 00:42:05;;;;;;;;;;;21.40;77.10;21.40;100078.00;;;;342919;28;91932;-88
2022/07/06 00:42:16;;;;;;;;;;;21.40;77.20;21.50;100077.00;;;;344531;28;93837;-88
2022/07/06 00:42:28;;;;;;;;;;;21.40;77.10;21.50;100077.00;;;;344083;28;92149;-88
2022/07/06 00:42:47;;;;;;;;;;;21.40;77.40;21.40;100074.00;;;;343212;28;92102;-88
2022/07/06 00:42:59;;;;;;;;;;;21.40;77.40;21.40;100067.00;;;;344283;28;91342;-88
2022/07/06 00:43:11;;;;;;;;;;;21.40;77.40;21.40;100081.00;;;;345857;28;92784;-88
2022/07/06 00:43:23;;;;;;;;;;;21.40;77.40;21.40;100074.00;;;;344276;28;91181;-87
2022/07/06 00:43:55;;;;;;;;;;;21.40;77.50;21.50;100070.00;;;;341750;28;93827;-88
2022/07/06 00:44:08;;;;;;;;;;;21.40;77.50;21.50;100082.00;;;;342669;28;91103;-88
2022/07/06 00:44:20;;;;;;;;;;;21.40;77.40;21.50;100079.00;;;;343086;28;93775;-88
2022/07/06 00:44:33;;;;;;;;;;;21.40;77.40;21.50;100078.00;;;;344121;28;92099;-89
2022/07/06 00:44:45;;;;;;;;;;;21.40;77.20;21.50;100079.00;;;;343460;28;91579;-88
2022/07/06 00:44:57;;;;;;;;;;;21.40;77.20;21.50;100079.00;;;;343880;28;91349;-88
2022/07/06 00:45:09;;;;;;;;;;;21.40;77.50;21.50;100079.00;;;;342712;28;92593;-89
2022/07/06 00:45:21;;;;;;;;;;;21.40;77.60;21.50;100073.00;;;;344302;28;91551;-88
2022/07/06 00:45:33;;;;;;;;;;;21.40;77.40;21.50;100081.00;;;;343250;28;91397;-88
2022/07/06 00:45:45;;;;;;;;;;;21.40;77.40;21.40;100069.00;;;;344140;28;91975;-88
2022/07/06 00:45:57;;;;;;;;;;;21.40;77.40;21.50;100078.00;;;;345628;28;95680;-88
2022/07/06 00:46:09;;;;;;;;;;;21.40;77.50;21.50;100080.00;;;;343982;28;92033;-89
2022/07/06 00:46:30;;;;;;;;;;;21.40;77.50;21.40;100073.00;;;;345836;28;95760;-88
2022/07/06 00:46:42;;;;;;;;;;;21.40;77.40;21.50;100069.00;;;;345420;28;92046;-88
2022/07/06 00:46:54;;;;;;;;;;;21.40;77.40;21.50;100073.00;;;;345727;28;94998;-88
2022/07/06 00:47:07;;;;;;;;;;;21.40;77.40;21.50;100073.00;;;;345452;28;91992;-88
2022/07/06 00:47:19;;;;;;;;;;;21.40;77.40;21.50;100067.00;;;;345720;28;94518;-89
2022/07/06 00:47:31;;;;;;;;;;;21.40;77.50;21.50;100063.00;;;;344231;28;91388;-88
2022/07/06 00:47:43;;;;;;;;;;;21.40;77.30;21.50;100081.00;;;;345762;28;93779;-88
2022/07/06 00:47:55;;;;;;;;;;;21.40;77.40;21.50;100069.00;;;;344190;28;92018;-88
2022/07/06 00:48:06;;;;;;;;;;;21.40;77.60;21.40;100080.00;;;;342834;28;94770;-88
2022/07/06 00:48:18;;;;;;;;;;;21.40;77.60;21.40;100069.00;;;;342854;28;92025;-88
2022/07/06 00:48:31;;;;;;;;;;;21.40;77.60;21.40;100081.00;;;;343051;28;93497;-88
2022/07/06 00:48:43;;;;;;;;;;;21.40;77.60;21.40;100077.00;;;;345588;28;91922;-88
2022/07/06 00:48:55;;;;;;;;;;;21.40;77.40;21.40;100080.00;;;;345709;28;94584;-87
2022/07/06 00:50:13;;;;;;;;;;;21.40;77.40;21.40;100076.00;;;;344190;28;92106;-88
2022/07/06 00:50:22;;;;;;;;;;;21.40;77.30;21.40;100081.00;;;;342926;28;91226;-89
2022/07/06 00:50:34;;;;;;;;;;;21.40;77.80;21.40;100077.00;;;;342670;28;94776;-88
2022/07/06 00:50:46;;;;;;;;;;;21.40;77.50;21.40;100074.00;;;;344088;28;91192;-88
2022/07/06 00:50:58;;;;;;;;;;;21.40;77.50;21.30;100085.00;;;;341710;28;95843;-88
2022/07/06 00:51:10;;;;;;;;;;;21.40;77.40;21.30;100078.00;;;;343894;28;92138;-88
2022/07/06 00:51:25;;;;;;;;;;;21.40;77.40;21.40;100080.00;;;;342976;28;94580;-88
2022/07/06 00:51:37;;;;;;;;;;;21.40;77.30;21.40;100077.00;;;;341475;28;91993;-88
2022/07/06 00:51:49;;;;;;;;;;;21.30;77.40;21.40;100068.00;;;;342949;28;95845;-88
2022/07/06 00:52:01;;;;;;;;;;;21.40;77.30;21.40;100065.00;;;;344138;28;91245;-88
2022/07/06 00:52:13;;;;;;;;;;;21.30;77.30;21.40;100074.00;;;;341718;28;95772;-88
2022/07/06 00:52:24;;;;;;;;;;;21.30;77.30;21.40;100064.00;;;;342811;28;91260;-88
2022/07/06 00:52:36;;;;;;;;;;;21.30;77.30;21.30;100083.00;;;;342743;28;93984;-87
2022/07/06 00:52:56;;;;;;;;;;;21.40;77.40;21.30;100085.00;;;;344937;28;91307;-88
2022/07/06 00:53:08;;;;;;;;;;;21.30;77.20;21.40;100077.00;;;;342937;28;93753;-88
2022/07/06 00:53:20;;;;;;;;;;;21.30;77.50;21.40;100070.00;;;;343874;28;91299;-88
2022/07/06 00:53:32;;;;;;;;;;;21.30;77.40;21.40;100078.00;;;;344483;28;95746;-88
2022/07/06 00:53:43;;;;;;;;;;;21.30;77.40;21.40;100077.00;;;;344311;28;91924;-88
2022/07/06 00:53:55;;;;;;;;;;;21.30;77.40;21.30;100084.00;;;;341678;28;95826;-88
2022/07/06 00:54:07;;;;;;;;;;;21.30;77.40;21.20;100076.00;;;;344187;28;91211;-88
2022/07/06 00:54:19;;;;;;;;;;;21.30;77.50;21.20;100080.00;;;;343040;28;95709;-88
2022/07/06 00:54:31;;;;;;;;;;;21.30;77.40;21.30;100074.00;;;;342721;28;91321;-88
2022/07/06 00:54:43;;;;;;;;;;;21.30;77.50;21.30;100085.00;;;;345843;28;95429;-89
2022/07/06 00:54:55;;;;;;;;;;;21.30;77.50;21.30;100074.00;;;;342907;28;91140;-89
2022/07/06 00:55:08;;;;;;;;;;;21.30;77.70;21.30;100068.00;;;;343098;28;95410;-89
2022/07/06 00:55:25;;;;;;;;;;;21.30;77.50;21.30;100080.00;;;;342755;28;92063;-89
2022/07/06 00:55:41;;;;;;;;;;;21.30;77.60;21.20;100073.00;;;;344389;28;95682;-88
2022/07/06 00:55:53;;;;;;;;;;;21.30;77.70;21.30;100076.00;;;;343536;28;92264;-88
2022/07/06 00:56:04;;;;;;;;;;;21.30;77.70;21.30;100073.00;;;;343977;28;98877;-87
2022/07/06 00:56:16;;;;;;;;;;;21.30;77.50;21.30;100073.00;;;;343444;28;92109;-89
2022/07/06 00:56:29;;;;;;;;;;;21.20;77.40;21.30;100076.00;;;;344482;28;95432;-88
2022/07/06 00:56:41;;;;;;;;;;;21.30;77.50;21.30;100078.00;;;;342883;28;90444;-89
2022/07/06 00:56:52;;;;;;;;;;;21.20;78.00;21.30;100078.00;;;;341764;28;94002;-89
2022/07/06 00:57:05;;;;;;;;;;;21.30;77.60;21.30;100075.00;;;;342693;28;91989;-89
2022/07/06 00:57:17;;;;;;;;;;;21.20;77.40;21.30;100073.00;;;;342962;28;93736;-89
2022/07/06 00:57:29;;;;;;;;;;;21.30;77.50;21.30;100073.00;;;;342630;28;91919;-88
2022/07/06 00:57:41;;;;;;;;;;;21.30;77.60;21.30;100077.00;;;;343124;28;94035;-89
2022/07/06 00:57:53;;;;;;;;;;;21.20;77.40;21.30;100078.00;;;;343941;28;92048;-88
2022/07/06 00:58:05;;;;;;;;;;;21.20;77.50;21.20;100073.00;;;;343098;28;93933;-89
2022/07/06 00:58:17;;;;;;;;;;;21.20;77.50;21.20;100075.00;;;;345577;28;91757;-89
2022/07/06 00:58:29;;;;;;;;;;;21.20;77.50;21.20;100078.00;;;;345634;28;94818;-89
2022/07/06 00:58:41;;;;;;;;;;;21.20;77.60;21.30;100077.00;;;;343942;28;91348;-88
2022/07/06 00:58:53;;;;;;;;;;;21.20;77.50;21.30;100081.00;;;;343968;28;91585;-88
2022/07/06 00:59:05;;;;;;;;;;;21.20;77.60;21.30;100081.00;;;;342516;28;92026;-89
2022/07/06 00:59:16;;;;;;;;;;;21.20;77.70;21.30;100063.00;;;;343123;28;92625;-88
2022/07/06 00:59:28;;;;;;;;;;;21.20;77.80;21.30;100073.00;;;;341516;28;91972;-88
2022/07/06 00:59:40;;;;;;;;;;;21.20;77.50;21.30;100076.00;;;;343142;28;94387;-89
2022/07/06 00:59:52;;;;;;;;;;;21.20;77.50;21.30;100073.00;;;;344022;28;92106;-89
2022/07/06 01:00:04;;;;;;;;;;;21.20;77.50;21.20;100074.00;;;;342955;28;93755;-89
2022/07/06 01:00:18;;;;;;;;;;;21.20;77.60;21.20;100081.00;;;;345441;28;91267;-89
2022/07/06 01:00:30;;;;;;;;;;;21.20;77.50;21.30;100078.00;;;;342916;28;94712;-88